Time;durP1;ratioP1;P1;durP2;ratioP2;P2;SDS_P1;SDS_P2;PMS_P1;PMS_P2;Temp;Humidity;BMP_temperature;BMP_pressure;BME280_temperature;BME280_humidity;BME280_pressure;Samples;Min_cycle;Max_cycle;Signal;HPM_P1;HPM_P2
2022/04/02 00:01:19;;;;;;;4.37;3.40;;;4.00;99.90;;;;;;5046460;28;20507;-33
2022/04/02 00:03:45;;;;;;;3.53;3.23;;;3.60;99.90;;;;;;5045533;28;20531;-35
2022/04/02 00:06:10;;;;;;;4.77;3.57;;;3.90;99.90;;;;;;5052127;28;20652;-35
2022/04/02 00:08:36;;;;;;;5.33;3.83;;;4.00;99.90;;;;;;5068369;28;20205;-36
2022/04/02 00:11:02;;;;;;;7.37;3.57;;;3.60;99.90;;;;;;5046704;28;20260;-36
2022/04/02 00:13:30;;;;;;;4.83;3.97;;;3.60;99.90;;;;;;5048999;28;20224;-36
2022/04/02 00:15:57;;;;;;;5.53;3.50;;;3.90;99.90;;;;;;5047108;28;20798;-36
2022/04/02 00:18:23;;;;;;;5.00;3.50;;;3.60;99.90;;;;;;5047116;28;20435;-35
2022/04/02 00:20:49;;;;;;;3.53;3.23;;;4.00;99.90;;;;;;5061685;28;20909;-35
2022/04/02 00:25:59;;;;;;;5.03;3.70;;;3.90;99.90;;;;;;5046985;28;20526;-35
2022/04/02 00:28:24;;;;;;;3.87;2.80;;;4.00;99.90;;;;;;5057629;28;20617;-35
2022/04/02 00:30:51;;;;;;;4.73;3.47;;;3.90;99.90;;;;;;5046202;28;20296;-34
2022/04/02 00:33:17;;;;;;;4.37;3.97;;;4.00;99.90;;;;;;5046606;28;20201;-35
2022/04/02 00:35:43;;;;;;;3.97;3.43;;;3.90;99.90;;;;;;5058422;28;21235;-35
2022/04/02 00:38:08;;;;;;;3.77;3.33;;;4.00;99.90;;;;;;5058896;28;20184;-35
2022/04/02 00:40:34;;;;;;;3.83;3.40;;;3.80;99.90;;;;;;5046123;28;20194;-35
2022/04/02 00:43:00;;;;;;;6.17;3.30;;;3.70;99.90;;;;;;5053360;28;20212;-36
2022/04/02 00:45:25;;;;;;;4.27;3.20;;;3.80;99.90;;;;;;5046555;28;20687;-36
2022/04/02 00:47:51;;;;;;;3.80;3.10;;;3.70;99.90;;;;;;5046486;28;20679;-35
2022/04/02 00:50:17;;;;;;;4.63;2.83;;;3.70;99.90;;;;;;5050277;28;20274;-35
2022/04/02 00:52:44;;;;;;;4.40;3.23;;;3.80;99.90;;;;;;5074338;28;20224;-35
2022/04/02 00:55:10;;;;;;;4.60;3.03;;;4.00;99.90;;;;;;5046222;28;20636;-34
2022/04/02 00:57:35;;;;;;;4.87;3.23;;;3.60;99.90;;;;;;5048508;28;20452;-36
2022/04/02 01:00:03;;;;;;;7.70;3.27;;;3.60;99.90;;;;;;5045824;28;20197;-35
2022/04/02 01:02:28;;;;;;;4.50;3.20;;;3.60;99.90;;;;;;5046517;28;20189;-33
2022/04/02 01:04:54;;;;;;;5.80;3.27;;;3.50;99.90;;;;;;5047604;28;20540;-35
2022/04/02 01:07:21;;;;;;;4.33;3.23;;;3.30;99.90;;;;;;5072652;28;20241;-35
2022/04/02 01:09:46;;;;;;;5.13;2.93;;;3.30;99.90;;;;;;5062761;28;20197;-35
2022/04/02 01:12:12;;;;;;;5.87;3.20;;;3.30;99.90;;;;;;5050217;28;20412;-35
2022/04/02 01:14:38;;;;;;;4.20;2.80;;;3.30;99.90;;;;;;5061248;28;20186;-35
2022/04/02 01:17:05;;;;;;;4.40;2.83;;;3.50;99.90;;;;;;5050046;28;20190;-35
2022/04/02 01:19:32;;;;;;;3.27;2.60;;;3.40;99.90;;;;;;5052598;28;20192;-35
2022/04/02 01:21:58;;;;;;;6.70;2.63;;;3.40;99.90;;;;;;5071544;28;20415;-35
2022/04/02 01:24:24;;;;;;;4.87;2.83;;;3.30;99.90;;;;;;5065940;28;20785;-35
2022/04/02 01:26:49;;;;;;;5.03;3.20;;;3.20;99.90;;;;;;5049812;28;20431;-35
2022/04/02 01:29:15;;;;;;;3.90;2.60;;;3.20;99.90;;;;;;5056715;28;20190;-35
2022/04/02 01:31:45;;;;;;;3.60;2.90;;;3.10;99.90;;;;;;5049001;28;20291;-35
2022/04/02 01:34:11;;;;;;;3.57;2.50;;;3.20;99.90;;;;;;5049548;28;20268;-35
2022/04/02 01:36:36;;;;;;;4.30;3.40;;;3.20;99.90;;;;;;5067891;28;20503;-35
2022/04/02 01:39:02;;;;;;;2.57;2.37;;;3.10;99.90;;;;;;5067403;28;20209;-35
2022/04/02 01:41:28;;;;;;;4.20;3.00;;;3.20;99.90;;;;;;5053860;28;20792;-35
2022/04/02 01:43:54;;;;;;;3.17;2.40;;;3.20;99.90;;;;;;5052407;28;20890;-35
2022/04/02 01:46:19;;;;;;;4.90;2.33;;;3.20;99.90;;;;;;5049172;28;20281;-35
2022/04/02 01:48:45;;;;;;;3.90;2.53;;;3.20;99.90;;;;;;5049578;28;20255;-35
2022/04/02 01:51:11;;;;;;;3.10;2.40;;;3.00;99.90;;;;;;5067663;28;20619;-35
2022/04/02 01:53:37;;;;;;;2.93;2.33;;;3.20;99.90;;;;;;5056770;28;20950;-35
2022/04/02 01:56:03;;;;;;;4.73;2.67;;;3.20;99.90;;;;;;5054684;28;21186;-35
2022/04/02 01:58:29;;;;;;;2.40;2.20;;;3.20;99.90;;;;;;5055459;28;20724;-35
2022/04/02 02:00:55;;;;;;;4.70;2.43;;;3.30;99.90;;;;;;5053801;28;20457;-35
2022/04/02 02:03:21;;;;;;;3.10;2.47;;;3.10;99.90;;;;;;5047733;28;20887;-35
2022/04/02 02:05:47;;;;;;;2.73;2.27;;;3.20;99.90;;;;;;5048286;28;20445;-35
2022/04/02 02:08:12;;;;;;;3.70;2.57;;;3.20;99.90;;;;;;5066288;28;20192;-35
2022/04/02 02:10:38;;;;;;;3.00;2.13;;;3.20;99.90;;;;;;5052375;28;20688;-35
2022/04/02 02:13:04;;;;;;;2.47;2.27;;;3.30;99.90;;;;;;5050568;28;20193;-35
2022/04/02 02:15:30;;;;;;;3.43;2.63;;;3.30;99.90;;;;;;5054483;28;20197;-35
2022/04/02 02:17:55;;;;;;;2.63;2.20;;;3.20;99.90;;;;;;5048718;28;20417;-35
2022/04/02 02:20:21;;;;;;;4.80;2.27;;;3.20;99.90;;;;;;5047704;28;20568;-35
2022/04/02 02:22:50;;;;;;;5.43;2.50;;;3.20;99.90;;;;;;5064175;28;20257;-36
2022/04/02 02:25:16;;;;;;;3.70;2.47;;;3.30;99.90;;;;;;5058166;28;20185;-35
2022/04/02 02:27:45;;;;;;;2.57;2.27;;;3.10;99.90;;;;;;5048818;28;20420;-35
2022/04/02 02:30:12;;;;;;;2.67;2.47;;;3.10;99.90;;;;;;5050876;28;20456;-35
2022/04/02 02:32:37;;;;;;;3.50;2.07;;;3.20;99.90;;;;;;5048875;28;20417;-35
2022/04/02 02:37:48;;;;;;;3.93;2.10;;;2.90;99.90;;;;;;5063871;28;20184;-35
2022/04/02 02:40:15;;;;;;;4.00;2.80;;;2.90;99.90;;;;;;5060230;28;20488;-35
2022/04/02 02:42:41;;;;;;;2.93;2.60;;;3.00;99.90;;;;;;5048329;28;20185;-35
2022/04/02 02:45:07;;;;;;;5.00;2.83;;;2.70;99.90;;;;;;5060849;28;20431;-35
2022/04/02 02:47:32;;;;;;;3.20;2.47;;;2.70;99.90;;;;;;5048460;28;20429;-35
2022/04/02 02:50:00;;;;;;;2.77;2.20;;;2.80;99.90;;;;;;5047137;28;20464;-35
2022/04/02 02:52:26;;;;;;;5.83;2.40;;;2.80;99.90;;;;;;5066428;28;20189;-35
2022/04/02 02:54:52;;;;;;;3.90;2.30;;;2.90;99.90;;;;;;5061449;28;20435;-35
2022/04/02 02:57:18;;;;;;;3.00;2.33;;;3.10;99.90;;;;;;5048208;28;20436;-35
2022/04/02 02:59:44;;;;;;;2.70;2.23;;;3.10;99.90;;;;;;5055529;28;20186;-35
2022/04/02 03:02:11;;;;;;;4.33;2.50;;;3.10;99.90;;;;;;5048115;28;20690;-35
2022/04/02 03:04:37;;;;;;;2.43;2.23;;;2.70;99.90;;;;;;5046597;28;20424;-35
2022/04/02 03:07:04;;;;;;;4.50;2.10;;;2.70;99.90;;;;;;5067192;28;20483;-35
2022/04/02 03:09:29;;;;;;;3.80;2.57;;;2.80;99.90;;;;;;5069481;28;20416;-35
2022/04/02 03:11:56;;;;;;;4.23;2.60;;;2.70;99.90;;;;;;5047146;28;20470;-35
2022/04/02 03:14:22;;;;;;;3.50;2.93;;;2.90;99.90;;;;;;5051526;28;20423;-35
2022/04/02 03:16:47;;;;;;;4.40;2.43;;;2.80;99.90;;;;;;5047896;28;20490;-35
2022/04/02 03:19:13;;;;;;;5.33;2.37;;;2.60;99.90;;;;;;5047859;28;20427;-35
2022/04/02 03:21:39;;;;;;;2.67;2.43;;;2.90;99.90;;;;;;5053858;28;20438;-35
2022/04/02 03:24:05;;;;;;;2.97;2.30;;;2.50;99.90;;;;;;5067723;28;20186;-35
2022/04/02 03:26:31;;;;;;;3.73;2.40;;;2.60;99.90;;;;;;5047154;28;20428;-35
2022/04/02 03:28:57;;;;;;;4.63;2.67;;;2.70;99.90;;;;;;5051925;28;20687;-35
2022/04/02 03:31:22;;;;;;;3.60;2.03;;;2.70;99.90;;;;;;5054468;28;20324;-35
2022/04/02 03:33:49;;;;;;;2.97;2.30;;;2.90;99.90;;;;;;5047921;28;20216;-35
2022/04/02 03:36:15;;;;;;;2.80;2.33;;;2.80;99.90;;;;;;5050309;28;20361;-35
2022/04/02 03:38:41;;;;;;;3.40;2.13;;;2.60;99.90;;;;;;5069225;28;20636;-33
2022/04/02 03:41:07;;;;;;;2.77;2.00;;;2.60;99.90;;;;;;5056167;28;20208;-35
2022/04/02 03:43:33;;;;;;;5.10;2.03;;;2.60;99.90;;;;;;5047725;28;20804;-35
2022/04/02 03:48:44;;;;;;;3.50;2.27;;;2.90;99.90;;;;;;5047636;28;20681;-35
2022/04/02 03:51:09;;;;;;;3.20;2.03;;;2.60;99.90;;;;;;5047508;28;20522;-35
2022/04/02 03:53:35;;;;;;;3.17;2.27;;;2.50;99.90;;;;;;5073847;28;20424;-35
2022/04/02 03:56:01;;;;;;;2.50;2.13;;;2.50;99.90;;;;;;5071017;28;20220;-35
2022/04/02 03:58:27;;;;;;;2.40;2.00;;;2.60;99.90;;;;;;5047100;28;20200;-35
2022/04/02 04:00:53;;;;;;;4.60;2.63;;;2.40;99.90;;;;;;5050584;28;20193;-35
2022/04/02 04:03:19;;;;;;;2.60;1.97;;;2.40;99.90;;;;;;5045483;28;20906;-35
2022/04/02 04:05:45;;;;;;;4.30;2.10;;;2.50;99.90;;;;;;5046993;28;20513;-35
2022/04/02 04:08:11;;;;;;;3.07;2.23;;;2.50;99.90;;;;;;5067864;28;20897;-35
2022/04/02 04:10:36;;;;;;;2.63;1.90;;;2.50;99.90;;;;;;5064719;28;20509;-35
2022/04/02 04:13:02;;;;;;;3.53;2.03;;;2.70;99.90;;;;;;5046867;28;20190;-35
2022/04/02 04:15:28;;;;;;;3.30;2.17;;;2.50;99.90;;;;;;5059091;28;20250;-35
2022/04/02 04:17:56;;;;;;;4.00;2.80;;;2.50;99.90;;;;;;5059210;28;20202;-35
2022/04/02 04:20:22;;;;;;;2.70;2.10;;;2.40;99.90;;;;;;5045868;28;20194;-35
2022/04/02 04:22:47;;;;;;;4.10;2.70;;;2.50;99.90;;;;;;5049180;28;20854;-35
2022/04/02 04:25:13;;;;;;;3.93;2.20;;;2.50;99.90;;;;;;5053773;28;20428;-35
2022/04/02 04:27:39;;;;;;;3.30;1.90;;;2.50;99.90;;;;;;5046939;28;20239;-35
2022/04/02 04:30:06;;;;;;;2.77;2.03;;;2.50;99.90;;;;;;5055495;28;20432;-35
2022/04/02 04:32:32;;;;;;;2.40;2.20;;;2.60;99.90;;;;;;5045708;28;20440;-35
2022/04/02 04:34:58;;;;;;;3.07;1.93;;;2.60;99.90;;;;;;5046525;28;20612;-35
2022/04/02 04:37:24;;;;;;;2.80;2.30;;;2.40;99.90;;;;;;5056028;28;20515;-35
2022/04/02 04:39:50;;;;;;;2.43;2.20;;;2.60;99.90;;;;;;5067275;28;20584;-35
2022/04/02 04:42:16;;;;;;;3.63;2.40;;;2.40;99.90;;;;;;5048407;28;20440;-35
2022/04/02 04:44:43;;;;;;;3.60;2.43;;;2.50;99.90;;;;;;5054078;28;20676;-35
2022/04/02 04:47:09;;;;;;;3.60;2.67;;;2.50;99.90;;;;;;5050760;28;20880;-35
2022/04/02 04:49:36;;;;;;;2.53;2.00;;;2.60;99.90;;;;;;5050424;28;20549;-35
2022/04/02 04:52:03;;;;;;;2.80;2.13;;;2.40;99.90;;;;;;5056987;28;20482;-35
2022/04/02 04:54:28;;;;;;;3.93;2.10;;;2.30;99.90;;;;;;5078414;28;20521;-35
2022/04/02 04:56:54;;;;;;;2.40;2.00;;;2.20;99.90;;;;;;5056019;28;20538;-35
2022/04/02 04:59:19;;;;;;;2.90;2.60;;;2.30;99.90;;;;;;5050819;28;20636;-35
2022/04/02 05:01:47;;;;;;;2.83;2.20;;;2.30;99.90;;;;;;5049907;28;20255;-35
2022/04/02 05:04:13;;;;;;;2.27;1.83;;;2.50;99.90;;;;;;5049020;28;20347;-35
2022/04/02 05:06:40;;;;;;;2.90;2.47;;;2.40;99.90;;;;;;5060564;28;21258;-35
2022/04/02 05:09:06;;;;;;;3.20;2.50;;;2.20;99.90;;;;;;5067369;28;20426;-35
2022/04/02 05:11:32;;;;;;;4.20;2.37;;;2.10;99.90;;;;;;5057615;28;20470;-35
2022/04/02 05:13:58;;;;;;;5.90;2.00;;;2.20;99.90;;;;;;5050673;28;20409;-35
2022/04/02 05:16:24;;;;;;;3.60;2.30;;;2.20;99.90;;;;;;5060651;28;20668;-35
2022/04/02 05:18:50;;;;;;;3.90;3.00;;;2.20;99.90;;;;;;5050154;28;20419;-35
2022/04/02 05:21:16;;;;;;;3.80;2.70;;;2.10;99.90;;;;;;5072800;28;20435;-35
2022/04/02 05:23:42;;;;;;;3.33;2.20;;;2.40;99.90;;;;;;5071423;28;20436;-35
2022/04/02 05:26:08;;;;;;;3.00;2.37;;;2.10;99.90;;;;;;5060892;28;20192;-35
2022/04/02 05:28:34;;;;;;;2.40;2.10;;;2.10;99.90;;;;;;5050271;28;20428;-35
2022/04/02 05:31:00;;;;;;;3.97;2.47;;;2.50;99.90;;;;;;5058811;28;20850;-35
2022/04/02 05:33:25;;;;;;;2.40;2.20;;;2.10;99.90;;;;;;5048977;28;20196;-35
2022/04/02 05:35:51;;;;;;;2.83;2.30;;;2.20;99.90;;;;;;5049168;28;20194;-35
2022/04/02 05:38:17;;;;;;;4.43;2.80;;;2.50;99.90;;;;;;5063594;28;20643;-35
2022/04/02 05:40:42;;;;;;;2.97;2.60;;;2.10;99.90;;;;;;5074845;28;20441;-35
2022/04/02 05:43:09;;;;;;;2.60;2.40;;;2.20;99.90;;;;;;5069709;28;20869;-35
2022/04/02 05:45:34;;;;;;;3.00;2.33;;;2.10;99.90;;;;;;5067590;28;20232;-35
2022/04/02 05:48:00;;;;;;;4.23;2.87;;;2.30;99.90;;;;;;5047909;28;20448;-36
2022/04/02 05:50:26;;;;;;;3.30;2.37;;;2.30;99.90;;;;;;5047988;28;20224;-38
2022/04/02 05:52:52;;;;;;;2.93;2.63;;;2.50;99.90;;;;;;5059522;28;20521;-39
2022/04/02 05:55:19;;;;;;;6.90;2.60;;;2.50;99.90;;;;;;5069018;28;20762;-36
2022/04/02 05:57:46;;;;;;;2.77;2.57;;;2.40;99.90;;;;;;5049420;28;21005;-35
2022/04/02 06:00:13;;;;;;;4.53;2.50;;;2.30;99.90;;;;;;5055385;28;20496;-36
2022/04/02 06:02:40;;;;;;;2.37;1.97;;;2.30;99.90;;;;;;5062665;28;20845;-36
2022/04/02 06:05:08;;;;;;;3.27;2.30;;;2.30;99.90;;;;;;5059897;28;20432;-39
2022/04/02 06:07:34;;;;;;;2.97;2.63;;;2.30;99.90;;;;;;5058627;28;20444;-39
2022/04/02 06:10:02;;;;;;;6.10;2.90;;;2.40;99.90;;;;;;5077659;28;20422;-38
2022/04/02 06:12:29;;;;;;;3.13;2.70;;;2.40;99.90;;;;;;5053489;28;20466;-38
2022/04/02 06:14:54;;;;;;;5.10;2.77;;;2.20;99.90;;;;;;5052161;28;20427;-38
2022/04/02 06:17:20;;;;;;;2.47;2.20;;;2.20;99.90;;;;;;5053344;28;20493;-33
2022/04/02 06:19:46;;;;;;;3.80;2.80;;;2.30;99.90;;;;;;5065185;28;20197;-35
2022/04/02 06:22:11;;;;;;;2.80;2.60;;;2.30;99.90;;;;;;5061845;28;20188;-40
2022/04/02 06:24:37;;;;;;;3.40;2.60;;;2.30;99.90;;;;;;5070939;28;20186;-36
2022/04/02 06:27:03;;;;;;;3.23;2.93;;;2.40;99.90;;;;;;5052565;28;20538;-36
2022/04/02 06:29:29;;;;;;;2.73;2.53;;;2.40;99.90;;;;;;5048783;28;20273;-35
2022/04/02 06:31:55;;;;;;;2.67;2.43;;;2.70;99.90;;;;;;5048643;28;20592;-43
2022/04/02 06:34:21;;;;;;;3.67;2.47;;;2.60;99.90;;;;;;5065118;28;20186;-44
2022/04/02 06:36:47;;;;;;;3.40;2.60;;;2.60;99.90;;;;;;5073338;28;20464;-44
2022/04/02 06:39:13;;;;;;;3.27;2.30;;;2.50;99.90;;;;;;5059752;28;20459;-42
2022/04/02 06:41:39;;;;;;;2.90;2.53;;;2.60;99.90;;;;;;5058238;28;20208;-43
2022/04/02 06:44:07;;;;;;;3.80;2.50;;;2.50;99.90;;;;;;5057418;28;20198;-43
2022/04/02 06:46:33;;;;;;;3.50;2.50;;;2.70;99.90;;;;;;5061398;28;20870;-43
2022/04/02 06:48:58;;;;;;;2.80;2.50;;;2.60;99.90;;;;;;5071887;28;20526;-43
2022/04/02 06:51:26;;;;;;;3.17;2.50;;;2.60;99.90;;;;;;5056803;28;20519;-44
2022/04/02 06:53:51;;;;;;;3.63;2.90;;;2.80;99.90;;;;;;5067474;28;20632;-43
2022/04/02 06:56:18;;;;;;;3.00;2.70;;;2.80;99.90;;;;;;5066023;28;20494;-43
2022/04/02 06:58:44;;;;;;;3.53;2.43;;;2.70;99.90;;;;;;5058094;28;20284;-43
2022/04/02 07:01:10;;;;;;;3.50;2.70;;;2.80;99.90;;;;;;5055546;28;20427;-43
2022/04/02 07:03:36;;;;;;;4.73;3.10;;;2.60;99.90;;;;;;5054911;28;20834;-39
2022/04/02 07:06:02;;;;;;;4.53;2.80;;;2.80;99.90;;;;;;5056662;28;20186;-42
2022/04/02 07:08:27;;;;;;;4.40;3.03;;;2.60;99.90;;;;;;5056673;28;20484;-41
2022/04/02 07:10:53;;;;;;;3.30;2.80;;;2.70;99.90;;;;;;5060149;28;20459;-40
2022/04/02 07:13:19;;;;;;;3.20;2.90;;;2.60;99.90;;;;;;5056522;28;20239;-41
2022/04/02 07:15:45;;;;;;;3.37;2.67;;;2.80;99.90;;;;;;5054860;28;20203;-41
2022/04/02 07:18:11;;;;;;;4.60;2.60;;;2.60;99.90;;;;;;5057493;28;20209;-42
2022/04/02 07:20:38;;;;;;;5.30;2.87;;;2.60;99.90;;;;;;5047256;28;20201;-42
2022/04/02 07:23:08;;;;;;;3.70;2.80;;;2.60;99.90;;;;;;5067520;28;20447;-41
2022/04/02 07:25:37;;;;;;;3.63;2.67;;;2.70;99.90;;;;;;5072001;28;20440;-42
2022/04/02 07:28:04;;;;;;;3.80;2.73;;;2.60;99.90;;;;;;5052083;28;20436;-41
2022/04/02 07:30:32;;;;;;;3.27;2.97;;;2.80;99.90;;;;;;5055402;28;20479;-42
2022/04/02 07:32:58;;;;;;;4.93;2.60;;;2.80;99.90;;;;;;5061469;28;20779;-40
2022/04/02 07:35:23;;;;;;;4.83;3.30;;;3.10;99.90;;;;;;5074144;28;20428;-41
2022/04/02 07:38:18;;;;;;;4.90;2.93;;;2.90;99.90;;;;;;5054053;28;20191;-41
2022/04/02 07:40:51;;;;;;;4.90;2.90;;;3.00;99.90;;;;;;5066614;28;20202;-42
2022/04/02 07:43:34;;;;;;;4.10;2.77;;;2.80;99.90;;;;;;5054666;28;20484;-40
2022/04/02 07:46:04;;;;;;;4.20;3.30;;;3.10;99.90;;;;;;5061049;28;20424;-40
2022/04/02 07:48:32;;;;;;;3.73;2.97;;;3.20;99.90;;;;;;5046647;28;20808;-40
2022/04/02 07:51:01;;;;;;;7.03;3.47;;;3.20;99.90;;;;;;5054103;28;20471;-41
2022/04/02 07:53:32;;;;;;;4.13;2.97;;;3.40;99.90;;;;;;5058169;28;20979;-41
2022/04/02 07:56:00;;;;;;;3.93;3.53;;;3.30;99.90;;;;;;5074510;28;20485;-42
2022/04/02 07:58:32;;;;;;;3.90;3.50;;;3.20;99.90;;;;;;5047277;28;20423;-42
2022/04/02 08:01:02;;;;;;;5.03;3.37;;;3.10;99.90;;;;;;5061209;28;20475;-41
2022/04/02 08:03:30;;;;;;;5.03;2.97;;;3.10;99.90;;;;;;5064317;28;20535;-41
2022/04/02 08:05:56;;;;;;;6.77;3.43;;;3.40;99.90;;;;;;5048290;28;20507;-41
2022/04/02 08:08:25;;;;;;;3.33;2.37;;;3.30;99.90;;;;;;5048292;28;20526;-42
2022/04/02 08:10:57;;;;;;;5.23;3.00;;;3.50;99.90;;;;;;5074726;28;20464;-41
2022/04/02 08:13:23;;;;;;;5.77;3.37;;;3.40;99.90;;;;;;5047164;28;20432;-41
2022/04/02 08:15:51;;;;;;;6.33;3.37;;;3.30;99.90;;;;;;5050085;28;20426;-42
2022/04/02 08:18:20;;;;;;;4.13;3.70;;;3.50;99.90;;;;;;5056831;28;20722;-41
2022/04/02 08:20:49;;;;;;;6.00;3.33;;;3.50;99.90;;;;;;5046775;28;20919;-41
2022/04/02 08:23:14;;;;;;;4.40;3.27;;;3.60;99.90;;;;;;5050610;28;20485;-42
2022/04/02 08:25:47;;;;;;;5.20;3.57;;;3.50;99.90;;;;;;5071011;28;20454;-41
2022/04/02 08:28:20;;;;;;;4.27;3.20;;;3.50;99.90;;;;;;5054773;28;20224;-42
2022/04/02 08:31:09;;;;;;;3.90;3.47;;;3.60;99.90;;;;;;5048642;28;20486;-41
2022/04/02 08:33:42;;;;;;;3.40;3.10;;;3.50;99.90;;;;;;5050229;28;20436;-41
2022/04/02 08:36:27;;;;;;;4.87;3.73;;;3.70;99.90;;;;;;5047002;28;20477;-41
2022/04/02 08:39:04;;;;;;;4.00;3.47;;;3.80;99.90;;;;;;5056989;28;20599;-40
2022/04/02 08:41:51;;;;;;;4.63;3.10;;;3.90;99.90;;;;;;5072683;28;20430;-40
2022/04/02 08:44:54;;;;;;;5.27;3.17;;;4.10;99.90;;;;;;5054939;28;20428;-41
2022/04/02 08:47:29;;;;;;;6.13;3.93;;;3.90;99.90;;;;;;5046933;28;20777;-42
2022/04/02 08:50:10;;;;;;;4.37;3.17;;;3.80;99.90;;;;;;5045869;28;20424;-41
2022/04/02 08:52:53;;;;;;;5.60;3.47;;;4.00;99.90;;;;;;5047550;28;21008;-43
2022/04/02 08:55:32;;;;;;;5.07;4.17;;;3.80;99.90;;;;;;5071985;28;20415;-41
2022/04/02 08:58:08;;;;;;;4.53;3.67;;;3.70;99.90;;;;;;5061682;28;20824;-41
2022/04/02 09:00:40;;;;;;;4.50;3.33;;;3.90;99.90;;;;;;5046196;28;20427;-41
2022/04/02 09:03:21;;;;;;;3.80;3.40;;;4.00;99.90;;;;;;5045809;28;20426;-41
2022/04/02 09:06:24;;;;;;;4.47;3.30;;;4.30;99.90;;;;;;5046833;28;20420;-41
2022/04/02 09:08:52;;;;;;;8.03;4.47;;;4.20;99.90;;;;;;5047275;28;20989;-41
2022/04/02 09:11:25;;;;;;;4.57;3.80;;;4.00;99.90;;;;;;5051159;28;20463;-41
2022/04/02 09:14:08;;;;;;;3.93;3.30;;;4.00;99.90;;;;;;5047044;28;20515;-42
2022/04/02 09:17:03;;;;;;;5.10;3.87;;;4.10;99.90;;;;;;5052535;28;20427;-40
2022/04/02 09:19:41;;;;;;;5.00;4.00;;;4.00;99.90;;;;;;5047315;28;20435;-42
2022/04/02 09:22:20;;;;;;;10.60;3.37;;;4.20;99.90;;;;;;5047630;28;20427;-41
2022/04/02 09:24:54;;;;;;;5.43;3.80;;;3.90;99.90;;;;;;5052072;28;20461;-40
2022/04/02 09:27:39;;;;;;;7.43;4.30;;;4.30;99.90;;;;;;5066117;28;20424;-40
2022/04/02 09:30:32;;;;;;;4.50;3.83;;;4.10;99.90;;;;;;5049901;28;20428;-41
2022/04/02 09:33:42;;;;;;;4.27;3.40;;;4.10;99.90;;;;;;5056375;28;20435;-40
2022/04/02 09:36:38;;;;;;;4.40;4.00;;;4.10;99.90;;;;;;5023158;28;20428;-43
2022/04/02 09:39:30;;;;;;;5.07;3.90;;;4.00;99.90;;;;;;5054819;28;20731;-42
2022/04/02 09:41:58;;;;;;;5.20;3.30;;;4.30;99.90;;;;;;5066481;28;20874;-42
2022/04/02 09:44:33;;;;;;;4.23;3.50;;;4.20;99.90;;;;;;5050569;28;20462;-42
2022/04/02 09:47:14;;;;;;;3.90;3.23;;;4.40;99.90;;;;;;5051655;28;20785;-41
2022/04/02 09:50:03;;;;;;;4.07;3.73;;;4.20;99.90;;;;;;5049615;28;20456;-42
2022/04/02 09:52:32;;;;;;;4.67;4.17;;;4.40;99.90;;;;;;5050039;28;20496;-42
2022/04/02 09:55:04;;;;;;;4.67;3.97;;;4.60;99.90;;;;;;5062390;28;20450;-41
2022/04/02 09:58:11;;;;;;;4.40;4.00;;;4.60;99.90;;;;;;5072551;28;20497;-42
2022/04/02 10:01:04;;;;;;;4.47;3.87;;;4.70;99.90;;;;;;5061007;28;20871;-42
2022/04/02 10:03:57;;;;;;;4.63;4.13;;;4.80;99.90;;;;;;5059572;28;20428;-40
2022/04/02 10:06:39;;;;;;;5.70;3.90;;;4.50;99.90;;;;;;5049743;28;20469;-41
2022/04/02 10:09:14;;;;;;;5.47;3.83;;;4.50;99.90;;;;;;5056528;28;20893;-42
2022/04/02 10:11:47;;;;;;;4.80;3.90;;;4.60;99.90;;;;;;5067633;28;20473;-41
2022/04/02 10:14:19;;;;;;;5.83;4.43;;;4.90;99.90;;;;;;5053130;28;20813;-41
2022/04/02 10:16:50;;;;;;;4.10;3.70;;;4.80;99.90;;;;;;5053826;28;20435;-41
2022/04/02 10:19:17;;;;;;;7.83;4.27;;;4.80;99.90;;;;;;5071431;28;20451;-41
2022/04/02 10:21:48;;;;;;;5.40;4.30;;;4.90;99.90;;;;;;5082392;28;20438;-42
2022/04/02 10:24:22;;;;;;;3.77;3.40;;;4.80;99.90;;;;;;5062603;28;20452;-41
2022/04/02 10:26:55;;;;;;;4.70;4.30;;;5.00;99.90;;;;;;5060739;28;20442;-41
2022/04/02 10:29:23;;;;;;;7.20;4.63;;;5.00;99.90;;;;;;5059608;28;20474;-40
2022/04/02 10:32:11;;;;;;;5.13;3.90;;;5.00;99.90;;;;;;5056990;28;20468;-41
2022/04/02 10:34:54;;;;;;;4.67;4.27;;;4.90;99.90;;;;;;5057043;28;20470;-42
2022/04/02 10:37:24;;;;;;;6.87;4.80;;;4.80;99.90;;;;;;5056438;28;20425;-43
2022/04/02 10:39:53;;;;;;;7.20;4.17;;;4.50;99.90;;;;;;5059554;28;20488;-42
2022/04/02 10:42:22;;;;;;;5.87;4.10;;;4.30;99.90;;;;;;5060402;28;20791;-41
2022/04/02 10:44:59;;;;;;;6.13;4.23;;;4.40;99.90;;;;;;5059011;28;20940;-42
2022/04/02 10:47:29;;;;;;;4.30;3.80;;;4.30;99.90;;;;;;5057265;28;20437;-41
2022/04/02 10:50:02;;;;;;;5.10;4.07;;;4.40;99.90;;;;;;5053629;28;20444;-41
2022/04/02 10:52:30;;;;;;;5.20;3.93;;;4.70;99.90;;;;;;5049172;28;20447;-41
2022/04/02 10:54:56;;;;;;;8.83;4.40;;;4.90;99.90;;;;;;5048880;28;20862;-42
2022/04/02 10:57:22;;;;;;;5.40;3.97;;;5.00;99.90;;;;;;5077608;28;20442;-43
2022/04/02 10:59:48;;;;;;;5.30;4.43;;;5.00;99.90;;;;;;5075155;28;20453;-43
2022/04/02 11:02:22;;;;;;;5.97;4.53;;;5.00;99.90;;;;;;5072427;28;20427;-44
2022/04/02 11:05:02;;;;;;;5.33;4.10;;;4.90;99.90;;;;;;5047099;28;20524;-41
2022/04/02 11:07:40;;;;;;;4.97;3.80;;;4.80;99.90;;;;;;5047201;28;21008;-41
2022/04/02 11:10:08;;;;;;;5.20;4.40;;;5.00;99.90;;;;;;5060761;28;20845;-42
2022/04/02 11:12:41;;;;;;;7.70;4.60;;;4.90;99.90;;;;;;5065645;28;20601;-41
2022/04/02 11:15:10;;;;;;;6.83;4.50;;;4.70;99.90;;;;;;5056932;28;20440;-42
2022/04/02 11:17:41;;;;;;;5.70;4.53;;;4.80;99.90;;;;;;5051046;28;20458;-42
2022/04/02 11:20:20;;;;;;;8.33;4.33;;;4.70;99.90;;;;;;5047893;28;20536;-41
2022/04/02 11:22:51;;;;;;;5.00;4.20;;;4.90;99.90;;;;;;5048010;28;20431;-42
2022/04/02 11:25:31;;;;;;;5.40;4.90;;;4.90;99.90;;;;;;5054541;28;20435;-41
2022/04/02 11:28:08;;;;;;;4.67;4.27;;;4.80;99.90;;;;;;5060766;28;20454;-42
2022/04/02 11:31:05;;;;;;;5.50;4.13;;;4.60;99.90;;;;;;5047262;28;20459;-41
2022/04/02 11:33:32;;;;;;;4.00;3.60;;;4.80;99.90;;;;;;5055592;28;20564;-41
2022/04/02 11:36:06;;;;;;;6.23;4.40;;;4.40;99.90;;;;;;5047787;28;20515;-41
2022/04/02 11:38:51;;;;;;;6.00;5.10;;;4.60;99.90;;;;;;5047549;28;20494;-41
2022/04/02 11:41:41;;;;;;;5.40;4.10;;;4.80;99.90;;;;;;5051921;28;20494;-41
2022/04/02 11:44:12;;;;;;;7.17;4.73;;;4.60;99.90;;;;;;5054015;28;20970;-41
2022/04/02 11:46:59;;;;;;;5.80;5.17;;;4.50;99.90;;;;;;5047826;28;20503;-41
2022/04/02 11:49:25;;;;;;;8.67;5.33;;;4.80;99.90;;;;;;5061082;28;20427;-41
2022/04/02 11:52:01;;;;;;;6.93;5.63;;;4.90;99.90;;;;;;5066872;28;20520;-41
2022/04/02 11:54:27;;;;;;;6.20;4.93;;;4.60;99.90;;;;;;5068024;28;20693;-41
2022/04/02 11:57:12;;;;;;;5.57;4.60;;;4.80;99.90;;;;;;5064982;28;20474;-41
2022/04/02 11:59:52;;;;;;;5.97;5.07;;;4.70;99.90;;;;;;5050679;28;20547;-41
2022/04/02 12:02:40;;;;;;;6.00;4.83;;;4.70;99.90;;;;;;5049388;28;20428;-41
2022/04/02 12:05:07;;;;;;;5.10;4.60;;;4.50;99.90;;;;;;5046656;28;20432;-41
2022/04/02 12:07:48;;;;;;;6.47;5.83;;;4.50;99.90;;;;;;5047816;28;20518;-41
2022/04/02 12:10:25;;;;;;;5.23;4.33;;;4.60;99.90;;;;;;5054252;28;20935;-41
2022/04/02 12:12:53;;;;;;;5.20;4.70;;;4.60;99.90;;;;;;5074503;28;20430;-42
2022/04/02 12:15:19;;;;;;;4.53;4.13;;;4.70;99.90;;;;;;5047813;28;20853;-42
2022/04/02 12:17:51;;;;;;;5.03;4.37;;;4.90;99.90;;;;;;5052179;28;20428;-40
2022/04/02 12:20:28;;;;;;;5.40;4.30;;;4.80;99.90;;;;;;5053325;28;20810;-41
2022/04/02 12:23:11;;;;;;;6.80;4.60;;;4.90;99.90;;;;;;5047824;28;20519;-41
2022/04/02 12:25:39;;;;;;;5.00;4.10;;;4.60;99.90;;;;;;5058906;28;20880;-41
2022/04/02 12:28:19;;;;;;;4.63;4.10;;;4.60;99.90;;;;;;5067376;28;20424;-40
2022/04/02 12:30:48;;;;;;;5.43;4.93;;;4.50;99.90;;;;;;5046686;28;20473;-41
2022/04/02 12:33:34;;;;;;;5.53;4.73;;;4.50;99.90;;;;;;5053993;28;20441;-41
2022/04/02 12:36:07;;;;;;;5.00;4.30;;;4.50;99.90;;;;;;5055945;28;20442;-43
2022/04/02 12:38:38;;;;;;;5.77;4.97;;;4.60;99.90;;;;;;5067760;28;20428;-43
2022/04/02 12:41:06;;;;;;;7.20;4.63;;;4.50;99.90;;;;;;5051770;28;20522;-44
2022/04/02 12:43:34;;;;;;;4.70;4.20;;;4.70;99.90;;;;;;5058786;28;20423;-41
2022/04/02 12:46:01;;;;;;;6.23;5.70;;;4.80;99.90;;;;;;5063234;28;20782;-40
2022/04/02 12:48:44;;;;;;;6.30;5.13;;;5.00;99.90;;;;;;5057766;28;20447;-41
2022/04/02 12:51:14;;;;;;;4.43;4.00;;;4.80;99.90;;;;;;5055206;28;20574;-41
2022/04/02 12:53:45;;;;;;;6.37;4.70;;;5.10;99.90;;;;;;5066453;28;20434;-40
2022/04/02 12:56:24;;;;;;;5.20;4.60;;;5.00;99.90;;;;;;5069091;28;20861;-41
2022/04/02 12:58:52;;;;;;;5.53;4.80;;;5.10;99.90;;;;;;5064883;28;20422;-41
2022/04/02 13:01:21;;;;;;;6.47;4.93;;;5.00;99.90;;;;;;5049357;28;20434;-41
2022/04/02 13:03:59;;;;;;;5.13;3.63;;;5.10;99.90;;;;;;5048636;28;20505;-39
2022/04/02 13:06:26;;;;;;;4.97;4.37;;;5.20;99.90;;;;;;5050879;28;20458;-40
2022/04/02 13:09:13;;;;;;;5.33;4.10;;;5.30;99.90;;;;;;5051157;28;20435;-40
2022/04/02 13:11:47;;;;;;;4.67;3.93;;;5.20;99.90;;;;;;5064574;28;21250;-43
2022/04/02 13:14:14;;;;;;;6.70;4.87;;;5.20;99.90;;;;;;5076865;28;20426;-42
2022/04/02 13:16:40;;;;;;;4.60;4.20;;;5.30;99.90;;;;;;5068644;28;20488;-41
2022/04/02 13:22:02;;;;;;;100.67;61.70;;;5.50;99.90;;;;;;5067881;28;20431;-42
2022/04/02 13:25:00;;;;;;;33.13;28.03;;;5.50;99.90;;;;;;5071059;28;20461;-41